sensor_id;sensor_type;location;lat;lon;timestamp;P1;durP1;ratioP1;P2;durP2;ratioP2
63943;SDS011;50121;51.218;7.664;2023-04-01T00:00:26;2.50;;;2.30;;
63943;SDS011;50121;51.218;7.664;2023-04-01T00:02:54;3.85;;;2.20;;
63943;SDS011;50121;51.218;7.664;2023-04-01T00:05:22;5.78;;;2.45;;
63943;SDS011;50121;51.218;7.664;2023-04-01T00:07:51;2.25;;;2.05;;
63943;SDS011;50121;51.218;7.664;2023-04-01T00:10:18;2.97;;;2.17;;
63943;SDS011;50121;51.218;7.664;2023-04-01T00:12:45;2.42;;;2.22;;
63943;SDS011;50121;51.218;7.664;2023-04-01T00:15:13;4.05;;;2.20;;
63943;SDS011;50121;51.218;7.664;2023-04-01T00:17:42;2.65;;;2.10;;
63943;SDS011;50121;51.218;7.664;2023-04-01T00:20:10;3.08;;;2.40;;
63943;SDS011;50121;51.218;7.664;2023-04-01T00:22:38;3.47;;;2.45;;
63943;SDS011;50121;51.218;7.664;2023-04-01T00:25:05;3.97;;;2.20;;
63943;SDS011;50121;51.218;7.664;2023-04-01T00:27:33;3.13;;;2.17;;
63943;SDS011;50121;51.218;7.664;2023-04-01T00:30:00;2.83;;;2.50;;
63943;SDS011;50121;51.218;7.664;2023-04-01T00:32:28;2.60;;;2.40;;
63943;SDS011;50121;51.218;7.664;2023-04-01T00:34:57;4.95;;;2.70;;
63943;SDS011;50121;51.218;7.664;2023-04-01T00:37:26;3.05;;;2.28;;
63943;SDS011;50121;51.218;7.664;2023-04-01T00:39:54;2.58;;;2.20;;
63943;SDS011;50121;51.218;7.664;2023-04-01T00:42:22;2.30;;;2.20;;
63943;SDS011;50121;51.218;7.664;2023-04-01T00:44:50;3.55;;;2.03;;
63943;SDS011;50121;51.218;7.664;2023-04-01T00:47:18;2.35;;;2.25;;
63943;SDS011;50121;51.218;7.664;2023-04-01T00:49:46;2.50;;;2.28;;
63943;SDS011;50121;51.218;7.664;2023-04-01T00:52:15;3.47;;;2.20;;
63943;SDS011;50121;51.218;7.664;2023-04-01T00:54:45;3.30;;;1.98;;
63943;SDS011;50121;51.218;7.664;2023-04-01T00:57:15;3.00;;;2.05;;
63943;SDS011;50121;51.218;7.664;2023-04-01T00:59:46;2.85;;;2.20;;
63943;SDS011;50121;51.218;7.664;2023-04-01T01:02:16;2.00;;;1.90;;
63943;SDS011;50121;51.218;7.664;2023-04-01T01:04:45;3.08;;;1.73;;
63943;SDS011;50121;51.218;7.664;2023-04-01T01:12:25;3.83;;;2.00;;
63943;SDS011;50121;51.218;7.664;2023-04-01T01:27:47;2.20;;;2.10;;
63943;SDS011;50121;51.218;7.664;2023-04-01T01:30:36;3.03;;;2.10;;
63943;SDS011;50121;51.218;7.664;2023-04-01T01:38:06;3.10;;;2.90;;
63943;SDS011;50121;51.218;7.664;2023-04-01T01:40:35;2.20;;;2.00;;
63943;SDS011;50121;51.218;7.664;2023-04-01T01:43:05;2.13;;;1.90;;
63943;SDS011;50121;51.218;7.664;2023-04-01T01:45:34;2.10;;;2.00;;
63943;SDS011;50121;51.218;7.664;2023-04-01T01:48:04;2.90;;;2.15;;
63943;SDS011;50121;51.218;7.664;2023-04-01T01:50:32;2.08;;;1.98;;
63943;SDS011;50121;51.218;7.664;2023-04-01T01:53:03;2.00;;;1.90;;
63943;SDS011;50121;51.218;7.664;2023-04-01T01:55:32;2.47;;;2.20;;
63943;SDS011;50121;51.218;7.664;2023-04-01T01:58:06;2.45;;;2.25;;
63943;SDS011;50121;51.218;7.664;2023-04-01T02:00:38;2.60;;;2.03;;
63943;SDS011;50121;51.218;7.664;2023-04-01T02:03:06;2.47;;;2.28;;
63943;SDS011;50121;51.218;7.664;2023-04-01T02:05:34;2.35;;;1.92;;
63943;SDS011;50121;51.218;7.664;2023-04-01T02:08:08;2.40;;;2.20;;
63943;SDS011;50121;51.218;7.664;2023-04-01T02:10:37;2.55;;;2.35;;
63943;SDS011;50121;51.218;7.664;2023-04-01T02:13:13;2.35;;;2.10;;
63943;SDS011;50121;51.218;7.664;2023-04-01T02:15:44;3.08;;;2.22;;
63943;SDS011;50121;51.218;7.664;2023-04-01T02:18:13;2.35;;;2.15;;
63943;SDS011;50121;51.218;7.664;2023-04-01T02:20:42;2.45;;;2.25;;
63943;SDS011;50121;51.218;7.664;2023-04-01T02:23:11;2.20;;;2.05;;
63943;SDS011;50121;51.218;7.664;2023-04-01T02:25:39;2.88;;;2.38;;
63943;SDS011;50121;51.218;7.664;2023-04-01T02:28:08;2.20;;;2.10;;
63943;SDS011;50121;51.218;7.664;2023-04-01T02:30:38;2.03;;;1.90;;
63943;SDS011;50121;51.218;7.664;2023-04-01T02:33:07;2.20;;;2.00;;
63943;SDS011;50121;51.218;7.664;2023-04-01T02:35:39;2.45;;;2.25;;
63943;SDS011;50121;51.218;7.664;2023-04-01T02:38:06;2.55;;;2.10;;
63943;SDS011;50121;51.218;7.664;2023-04-01T02:40:42;2.30;;;2.20;;
63943;SDS011;50121;51.218;7.664;2023-04-01T02:43:13;2.45;;;2.28;;
63943;SDS011;50121;51.218;7.664;2023-04-01T02:45:42;2.22;;;2.00;;
63943;SDS011;50121;51.218;7.664;2023-04-01T02:48:10;2.15;;;2.03;;
63943;SDS011;50121;51.218;7.664;2023-04-01T02:50:39;2.38;;;2.13;;
63943;SDS011;50121;51.218;7.664;2023-04-01T02:53:07;2.50;;;2.30;;
63943;SDS011;50121;51.218;7.664;2023-04-01T02:55:35;2.30;;;2.20;;
63943;SDS011;50121;51.218;7.664;2023-04-01T02:58:02;2.40;;;2.20;;
63943;SDS011;50121;51.218;7.664;2023-04-01T03:00:30;2.20;;;2.10;;
63943;SDS011;50121;51.218;7.664;2023-04-01T03:02:58;4.80;;;2.15;;
63943;SDS011;50121;51.218;7.664;2023-04-01T03:05:27;4.38;;;2.30;;
63943;SDS011;50121;51.218;7.664;2023-04-01T03:07:55;2.25;;;2.15;;
63943;SDS011;50121;51.218;7.664;2023-04-01T03:10:23;2.63;;;2.40;;
63943;SDS011;50121;51.218;7.664;2023-04-01T03:12:51;2.70;;;2.50;;
63943;SDS011;50121;51.218;7.664;2023-04-01T03:15:18;3.13;;;2.53;;
63943;SDS011;50121;51.218;7.664;2023-04-01T03:17:46;3.97;;;2.60;;
63943;SDS011;50121;51.218;7.664;2023-04-01T03:20:14;3.00;;;2.80;;
63943;SDS011;50121;51.218;7.664;2023-04-01T03:22:42;4.28;;;2.63;;
63943;SDS011;50121;51.218;7.664;2023-04-01T03:25:10;3.00;;;2.80;;
63943;SDS011;50121;51.218;7.664;2023-04-01T03:27:37;2.90;;;2.80;;
63943;SDS011;50121;51.218;7.664;2023-04-01T03:30:06;3.00;;;2.90;;
63943;SDS011;50121;51.218;7.664;2023-04-01T03:32:41;3.55;;;3.35;;
63943;SDS011;50121;51.218;7.664;2023-04-01T03:35:09;3.70;;;3.50;;
63943;SDS011;50121;51.218;7.664;2023-04-01T03:37:37;3.60;;;3.40;;
63943;SDS011;50121;51.218;7.664;2023-04-01T03:40:05;3.95;;;3.75;;
63943;SDS011;50121;51.218;7.664;2023-04-01T03:42:33;4.07;;;3.88;;
63943;SDS011;50121;51.218;7.664;2023-04-01T03:45:02;4.00;;;3.70;;
63943;SDS011;50121;51.218;7.664;2023-04-01T03:47:30;4.30;;;3.90;;
63943;SDS011;50121;51.218;7.664;2023-04-01T03:49:58;4.00;;;3.80;;
63943;SDS011;50121;51.218;7.664;2023-04-01T03:52:25;4.07;;;3.78;;
63943;SDS011;50121;51.218;7.664;2023-04-01T03:54:53;4.00;;;3.80;;
63943;SDS011;50121;51.218;7.664;2023-04-01T03:57:21;3.70;;;3.50;;
63943;SDS011;50121;51.218;7.664;2023-04-01T03:59:49;3.70;;;3.50;;
63943;SDS011;50121;51.218;7.664;2023-04-01T04:02:16;3.50;;;3.30;;
63943;SDS011;50121;51.218;7.664;2023-04-01T04:04:44;3.75;;;3.55;;
63943;SDS011;50121;51.218;7.664;2023-04-01T04:07:13;4.10;;;3.70;;
63943;SDS011;50121;51.218;7.664;2023-04-01T04:10:12;3.50;;;3.30;;
63943;SDS011;50121;51.218;7.664;2023-04-01T04:12:40;3.70;;;3.50;;
63943;SDS011;50121;51.218;7.664;2023-04-01T04:15:08;3.40;;;3.30;;
63943;SDS011;50121;51.218;7.664;2023-04-01T04:17:36;3.50;;;3.30;;
63943;SDS011;50121;51.218;7.664;2023-04-01T04:20:04;3.60;;;3.47;;
63943;SDS011;50121;51.218;7.664;2023-04-01T04:22:31;2.90;;;2.80;;
63943;SDS011;50121;51.218;7.664;2023-04-01T04:25:01;2.90;;;2.80;;
63943;SDS011;50121;51.218;7.664;2023-04-01T04:27:29;3.22;;;3.00;;
63943;SDS011;50121;51.218;7.664;2023-04-01T04:30:06;3.33;;;3.17;;
63943;SDS011;50121;51.218;7.664;2023-04-01T04:32:34;3.25;;;3.15;;
63943;SDS011;50121;51.218;7.664;2023-04-01T04:35:02;3.20;;;2.83;;
63943;SDS011;50121;51.218;7.664;2023-04-01T04:37:29;3.00;;;2.90;;
63943;SDS011;50121;51.218;7.664;2023-04-01T04:39:57;2.90;;;2.80;;
63943;SDS011;50121;51.218;7.664;2023-04-01T04:42:24;3.20;;;3.00;;
63943;SDS011;50121;51.218;7.664;2023-04-01T04:44:59;2.90;;;2.80;;
63943;SDS011;50121;51.218;7.664;2023-04-01T04:47:27;3.15;;;2.97;;
63943;SDS011;50121;51.218;7.664;2023-04-01T04:49:54;2.80;;;2.70;;
63943;SDS011;50121;51.218;7.664;2023-04-01T04:52:22;2.60;;;2.40;;
63943;SDS011;50121;51.218;7.664;2023-04-01T04:54:49;2.88;;;2.67;;
63943;SDS011;50121;51.218;7.664;2023-04-01T04:57:17;2.40;;;2.15;;
63943;SDS011;50121;51.218;7.664;2023-04-01T04:59:52;2.20;;;2.10;;
63943;SDS011;50121;51.218;7.664;2023-04-01T05:02:34;2.40;;;2.30;;
63943;SDS011;50121;51.218;7.664;2023-04-01T05:05:02;2.45;;;2.25;;
63943;SDS011;50121;51.218;7.664;2023-04-01T05:07:30;2.60;;;2.40;;
63943;SDS011;50121;51.218;7.664;2023-04-01T05:09:58;2.70;;;2.60;;
63943;SDS011;50121;51.218;7.664;2023-04-01T05:12:26;2.80;;;2.70;;
63943;SDS011;50121;51.218;7.664;2023-04-01T05:14:59;2.50;;;2.40;;
63943;SDS011;50121;51.218;7.664;2023-04-01T05:17:27;2.45;;;2.35;;
63943;SDS011;50121;51.218;7.664;2023-04-01T05:19:55;2.70;;;2.53;;
63943;SDS011;50121;51.218;7.664;2023-04-01T05:22:23;2.60;;;2.50;;
63943;SDS011;50121;51.218;7.664;2023-04-01T05:24:51;2.60;;;2.50;;
63943;SDS011;50121;51.218;7.664;2023-04-01T05:27:19;2.72;;;2.63;;
63943;SDS011;50121;51.218;7.664;2023-04-01T05:29:47;2.88;;;2.67;;
63943;SDS011;50121;51.218;7.664;2023-04-01T05:32:44;2.80;;;2.60;;
63943;SDS011;50121;51.218;7.664;2023-04-01T05:35:11;2.78;;;2.58;;
63943;SDS011;50121;51.218;7.664;2023-04-01T05:37:39;3.17;;;2.97;;
63943;SDS011;50121;51.218;7.664;2023-04-01T05:40:07;3.00;;;2.80;;
63943;SDS011;50121;51.218;7.664;2023-04-01T05:42:35;3.20;;;3.00;;
63943;SDS011;50121;51.218;7.664;2023-04-01T05:45:03;3.08;;;2.97;;
63943;SDS011;50121;51.218;7.664;2023-04-01T05:47:50;3.08;;;2.90;;
63943;SDS011;50121;51.218;7.664;2023-04-01T05:50:18;3.33;;;3.03;;
63943;SDS011;50121;51.218;7.664;2023-04-01T05:52:46;3.50;;;3.30;;
63943;SDS011;50121;51.218;7.664;2023-04-01T05:55:13;6.35;;;5.20;;
63943;SDS011;50121;51.218;7.664;2023-04-01T05:57:41;3.20;;;3.00;;
63943;SDS011;50121;51.218;7.664;2023-04-01T06:00:09;3.20;;;3.00;;
63943;SDS011;50121;51.218;7.664;2023-04-01T06:02:40;2.88;;;2.78;;
63943;SDS011;50121;51.218;7.664;2023-04-01T06:05:11;3.50;;;3.20;;
63943;SDS011;50121;51.218;7.664;2023-04-01T06:07:39;3.20;;;3.03;;
63943;SDS011;50121;51.218;7.664;2023-04-01T06:10:18;3.00;;;2.80;;
63943;SDS011;50121;51.218;7.664;2023-04-01T06:12:56;3.40;;;3.20;;
63943;SDS011;50121;51.218;7.664;2023-04-01T06:15:35;3.30;;;3.10;;
63943;SDS011;50121;51.218;7.664;2023-04-01T06:21:41;3.50;;;3.30;;
63943;SDS011;50121;51.218;7.664;2023-04-01T06:26:28;3.28;;;2.97;;
63943;SDS011;50121;51.218;7.664;2023-04-01T06:31:31;3.20;;;3.10;;
63943;SDS011;50121;51.218;7.664;2023-04-01T06:34:27;3.53;;;3.33;;
63943;SDS011;50121;51.218;7.664;2023-04-01T06:40:03;3.50;;;3.30;;
63943;SDS011;50121;51.218;7.664;2023-04-01T06:48:57;3.55;;;3.25;;
63943;SDS011;50121;51.218;7.664;2023-04-01T06:54:49;3.50;;;3.30;;
63943;SDS011;50121;51.218;7.664;2023-04-01T06:57:44;3.40;;;2.90;;
63943;SDS011;50121;51.218;7.664;2023-04-01T07:00:24;3.30;;;3.10;;
63943;SDS011;50121;51.218;7.664;2023-04-01T07:02:57;3.72;;;3.00;;
63943;SDS011;50121;51.218;7.664;2023-04-01T07:05:34;3.30;;;3.10;;
63943;SDS011;50121;51.218;7.664;2023-04-01T07:08:03;3.40;;;3.20;;
63943;SDS011;50121;51.218;7.664;2023-04-01T07:13:35;3.30;;;3.10;;
63943;SDS011;50121;51.218;7.664;2023-04-01T07:16:23;3.25;;;3.05;;
63943;SDS011;50121;51.218;7.664;2023-04-01T07:21:48;2.80;;;2.63;;
63943;SDS011;50121;51.218;7.664;2023-04-01T07:24:32;2.90;;;2.70;;
63943;SDS011;50121;51.218;7.664;2023-04-01T07:27:10;3.90;;;3.00;;
63943;SDS011;50121;51.218;7.664;2023-04-01T07:29:39;4.93;;;3.20;;
63943;SDS011;50121;51.218;7.664;2023-04-01T07:32:28;3.35;;;3.15;;
63943;SDS011;50121;51.218;7.664;2023-04-01T07:45:30;3.50;;;3.30;;
63943;SDS011;50121;51.218;7.664;2023-04-01T07:53:25;3.30;;;3.10;;
63943;SDS011;50121;51.218;7.664;2023-04-01T08:03:49;3.40;;;3.20;;
63943;SDS011;50121;51.218;7.664;2023-04-01T08:06:26;3.45;;;3.25;;
63943;SDS011;50121;51.218;7.664;2023-04-01T08:17:52;3.72;;;3.42;;
63943;SDS011;50121;51.218;7.664;2023-04-01T08:20:36;6.60;;;3.30;;
63943;SDS011;50121;51.218;7.664;2023-04-01T08:25:42;3.08;;;2.90;;
63943;SDS011;50121;51.218;7.664;2023-04-01T08:28:17;3.20;;;3.00;;
63943;SDS011;50121;51.218;7.664;2023-04-01T08:36:21;3.20;;;3.00;;
63943;SDS011;50121;51.218;7.664;2023-04-01T08:39:06;3.10;;;2.90;;
63943;SDS011;50121;51.218;7.664;2023-04-01T08:53:08;3.40;;;3.20;;
63943;SDS011;50121;51.218;7.664;2023-04-01T08:56:02;3.35;;;3.15;;
63943;SDS011;50121;51.218;7.664;2023-04-01T09:16:19;3.53;;;3.30;;
63943;SDS011;50121;51.218;7.664;2023-04-01T09:23:43;3.10;;;2.90;;
63943;SDS011;50121;51.218;7.664;2023-04-01T09:26:24;3.45;;;3.25;;
63943;SDS011;50121;51.218;7.664;2023-04-01T09:42:45;3.10;;;2.90;;
63943;SDS011;50121;51.218;7.664;2023-04-01T10:38:34;2.90;;;2.70;;
63943;SDS011;50121;51.218;7.664;2023-04-01T11:13:26;3.50;;;3.20;;
63943;SDS011;50121;51.218;7.664;2023-04-01T11:29:54;3.95;;;3.65;;
63943;SDS011;50121;51.218;7.664;2023-04-01T11:56:59;3.33;;;3.10;;
63943;SDS011;50121;51.218;7.664;2023-04-01T12:19:01;2.95;;;2.75;;
63943;SDS011;50121;51.218;7.664;2023-04-01T12:21:12;2.85;;;2.65;;
63943;SDS011;50121;51.218;7.664;2023-04-01T12:36:54;3.00;;;2.80;;
63943;SDS011;50121;51.218;7.664;2023-04-01T12:42:07;3.05;;;2.85;;
63943;SDS011;50121;51.218;7.664;2023-04-01T12:55:07;3.00;;;2.80;;
63943;SDS011;50121;51.218;7.664;2023-04-01T13:13:43;3.70;;;3.40;;
63943;SDS011;50121;51.218;7.664;2023-04-01T13:19:17;5.90;;;3.78;;
63943;SDS011;50121;51.218;7.664;2023-04-01T13:24:20;4.55;;;4.13;;
63943;SDS011;50121;51.218;7.664;2023-04-01T13:29:23;5.18;;;4.68;;
63943;SDS011;50121;51.218;7.664;2023-04-01T13:35:04;5.13;;;4.63;;
63943;SDS011;50121;51.218;7.664;2023-04-01T13:54:55;6.13;;;5.15;;
63943;SDS011;50121;51.218;7.664;2023-04-01T14:15:50;5.78;;;5.20;;
63943;SDS011;50121;51.218;7.664;2023-04-01T14:39:15;6.78;;;5.93;;
63943;SDS011;50121;51.218;7.664;2023-04-01T14:41:51;5.80;;;5.20;;
63943;SDS011;50121;51.218;7.664;2023-04-01T14:44:36;5.47;;;4.97;;
63943;SDS011;50121;51.218;7.664;2023-04-01T14:50:02;5.13;;;4.63;;
63943;SDS011;50121;51.218;7.664;2023-04-01T14:52:31;5.03;;;4.63;;
63943;SDS011;50121;51.218;7.664;2023-04-01T14:55:15;5.30;;;4.80;;
63943;SDS011;50121;51.218;7.664;2023-04-01T14:57:59;5.00;;;4.50;;
63943;SDS011;50121;51.218;7.664;2023-04-01T15:00:27;5.95;;;4.85;;
63943;SDS011;50121;51.218;7.664;2023-04-01T15:02:59;4.93;;;4.43;;
63943;SDS011;50121;51.218;7.664;2023-04-01T15:31:36;4.82;;;4.43;;
63943;SDS011;50121;51.218;7.664;2023-04-01T15:36:51;5.40;;;5.00;;
63943;SDS011;50121;51.218;7.664;2023-04-01T15:49:57;5.40;;;4.90;;
63943;SDS011;50121;51.218;7.664;2023-04-01T15:52:49;6.53;;;5.88;;
63943;SDS011;50121;51.218;7.664;2023-04-01T15:55:24;4.18;;;3.88;;
63943;SDS011;50121;51.218;7.664;2023-04-01T16:08:37;4.93;;;4.47;;
63943;SDS011;50121;51.218;7.664;2023-04-01T16:13:59;5.40;;;4.90;;
63943;SDS011;50121;51.218;7.664;2023-04-01T16:16:41;5.25;;;4.85;;
63943;SDS011;50121;51.218;7.664;2023-04-01T16:21:54;5.05;;;4.60;;
63943;SDS011;50121;51.218;7.664;2023-04-01T16:29:48;5.20;;;4.65;;
63943;SDS011;50121;51.218;7.664;2023-04-01T16:35:01;5.00;;;4.60;;
63943;SDS011;50121;51.218;7.664;2023-04-01T16:45:17;5.20;;;4.70;;
63943;SDS011;50121;51.218;7.664;2023-04-01T16:55:17;5.65;;;5.10;;
63943;SDS011;50121;51.218;7.664;2023-04-01T17:02:52;6.18;;;5.57;;
63943;SDS011;50121;51.218;7.664;2023-04-01T17:05:35;4.95;;;4.55;;
63943;SDS011;50121;51.218;7.664;2023-04-01T17:19:22;13.20;;;8.15;;
63943;SDS011;50121;51.218;7.664;2023-04-01T17:35:42;5.15;;;4.75;;
63943;SDS011;50121;51.218;7.664;2023-04-01T17:38:20;4.47;;;4.07;;
63943;SDS011;50121;51.218;7.664;2023-04-01T17:46:03;4.57;;;4.18;;
63943;SDS011;50121;51.218;7.664;2023-04-01T17:48:49;7.50;;;6.70;;
63943;SDS011;50121;51.218;7.664;2023-04-01T17:51:36;6.13;;;5.43;;
63943;SDS011;50121;51.218;7.664;2023-04-01T17:56:35;5.72;;;5.22;;
63943;SDS011;50121;51.218;7.664;2023-04-01T18:07:12;5.45;;;4.95;;
63943;SDS011;50121;51.218;7.664;2023-04-01T18:12:40;5.43;;;4.93;;
63943;SDS011;50121;51.218;7.664;2023-04-01T18:26:02;5.07;;;4.68;;
63943;SDS011;50121;51.218;7.664;2023-04-01T18:31:21;5.15;;;4.65;;
63943;SDS011;50121;51.218;7.664;2023-04-01T18:38:57;5.60;;;5.10;;
63943;SDS011;50121;51.218;7.664;2023-04-01T18:41:35;5.88;;;5.38;;
63943;SDS011;50121;51.218;7.664;2023-04-01T18:46:36;5.57;;;5.07;;
63943;SDS011;50121;51.218;7.664;2023-04-01T18:54:30;5.80;;;5.28;;
63943;SDS011;50121;51.218;7.664;2023-04-01T18:57:00;7.25;;;6.22;;
63943;SDS011;50121;51.218;7.664;2023-04-01T19:02:36;5.80;;;5.20;;
63943;SDS011;50121;51.218;7.664;2023-04-01T19:18:02;7.28;;;6.57;;
63943;SDS011;50121;51.218;7.664;2023-04-01T19:20:43;6.55;;;5.95;;
63943;SDS011;50121;51.218;7.664;2023-04-01T19:25:56;7.30;;;5.90;;
63943;SDS011;50121;51.218;7.664;2023-04-01T19:28:43;7.95;;;5.88;;
63943;SDS011;50121;51.218;7.664;2023-04-01T19:47:14;8.60;;;6.50;;
63943;SDS011;50121;51.218;7.664;2023-04-01T19:49:57;10.75;;;7.35;;
63943;SDS011;50121;51.218;7.664;2023-04-01T19:52:33;6.45;;;5.80;;
63943;SDS011;50121;51.218;7.664;2023-04-01T19:58:16;6.60;;;6.00;;
63943;SDS011;50121;51.218;7.664;2023-04-01T20:00:21;5.95;;;5.43;;
63943;SDS011;50121;51.218;7.664;2023-04-01T20:03:01;6.40;;;5.80;;
63943;SDS011;50121;51.218;7.664;2023-04-01T20:08:19;6.40;;;5.80;;
63943;SDS011;50121;51.218;7.664;2023-04-01T20:16:10;5.50;;;5.00;;
63943;SDS011;50121;51.218;7.664;2023-04-01T20:18:52;6.18;;;5.57;;
63943;SDS011;50121;51.218;7.664;2023-04-01T20:23:54;5.72;;;5.22;;
63943;SDS011;50121;51.218;7.664;2023-04-01T20:26:45;5.70;;;5.10;;
63943;SDS011;50121;51.218;7.664;2023-04-01T20:34:33;5.32;;;4.88;;
63943;SDS011;50121;51.218;7.664;2023-04-01T20:37:51;5.80;;;5.22;;
63943;SDS011;50121;51.218;7.664;2023-04-01T20:42:57;5.65;;;5.15;;
63943;SDS011;50121;51.218;7.664;2023-04-01T20:45:37;5.40;;;4.90;;
63943;SDS011;50121;51.218;7.664;2023-04-01T20:51:04;6.22;;;5.68;;
63943;SDS011;50121;51.218;7.664;2023-04-01T20:56:06;5.95;;;5.35;;
63943;SDS011;50121;51.218;7.664;2023-04-01T21:17:15;6.20;;;5.40;;
63943;SDS011;50121;51.218;7.664;2023-04-01T21:36:03;6.00;;;5.47;;
63943;SDS011;50121;51.218;7.664;2023-04-01T21:49:06;6.15;;;5.55;;
63943;SDS011;50121;51.218;7.664;2023-04-01T21:56:49;6.28;;;5.68;;
63943;SDS011;50121;51.218;7.664;2023-04-01T22:04:37;6.28;;;5.55;;
63943;SDS011;50121;51.218;7.664;2023-04-01T22:07:15;8.52;;;6.70;;
63943;SDS011;50121;51.218;7.664;2023-04-01T22:19:50;6.22;;;5.63;;
63943;SDS011;50121;51.218;7.664;2023-04-01T22:22:28;6.57;;;5.78;;
63943;SDS011;50121;51.218;7.664;2023-04-01T22:32:49;5.95;;;5.35;;
63943;SDS011;50121;51.218;7.664;2023-04-01T22:43:11;5.68;;;5.10;;
63943;SDS011;50121;51.218;7.664;2023-04-01T22:45:44;5.93;;;5.32;;
63943;SDS011;50121;51.218;7.664;2023-04-01T22:56:07;6.18;;;5.50;;
63943;SDS011;50121;51.218;7.664;2023-04-01T22:58:41;7.38;;;5.93;;
63943;SDS011;50121;51.218;7.664;2023-04-01T23:01:14;5.45;;;4.68;;
63943;SDS011;50121;51.218;7.664;2023-04-01T23:03:44;5.97;;;5.38;;
63943;SDS011;50121;51.218;7.664;2023-04-01T23:06:17;6.05;;;5.07;;
63943;SDS011;50121;51.218;7.664;2023-04-01T23:16:46;7.10;;;6.20;;
63943;SDS011;50121;51.218;7.664;2023-04-01T23:21:54;7.20;;;6.32;;
63943;SDS011;50121;51.218;7.664;2023-04-01T23:24:37;7.50;;;5.90;;
63943;SDS011;50121;51.218;7.664;2023-04-01T23:29:40;44.63;;;26.60;;
63943;SDS011;50121;51.218;7.664;2023-04-01T23:32:15;13.07;;;9.73;;
63943;SDS011;50121;51.218;7.664;2023-04-01T23:34:47;12.00;;;7.47;;
63943;SDS011;50121;51.218;7.664;2023-04-01T23:37:16;7.90;;;6.68;;
63943;SDS011;50121;51.218;7.664;2023-04-01T23:39:46;9.38;;;6.72;;
63943;SDS011;50121;51.218;7.664;2023-04-01T23:42:24;7.47;;;5.68;;
63943;SDS011;50121;51.218;7.664;2023-04-01T23:44:53;7.35;;;5.38;;
63943;SDS011;50121;51.218;7.664;2023-04-01T23:47:23;6.85;;;5.50;;
63943;SDS011;50121;51.218;7.664;2023-04-01T23:49:53;7.00;;;5.45;;
63943;SDS011;50121;51.218;7.664;2023-04-01T23:57:28;7.22;;;5.13;;
